createdAt,value
2023-02-13T05:00:38.208Z,0.00
2023-02-13T05:01:39.282Z,0.00
2023-02-13T05:02:39.737Z,0.00
2023-02-13T05:03:39.561Z,0.00
2023-02-13T05:04:39.175Z,0.00
2023-02-13T05:05:39.134Z,0.00
2023-02-13T05:06:39.132Z,0.00
2023-02-13T05:07:39.135Z,0.00
2023-02-13T05:08:39.100Z,0.00
2023-02-13T05:09:41.472Z,0.00
2023-02-13T05:10:39.091Z,0.00
2023-02-13T05:11:39.068Z,0.00
2023-02-13T05:12:39.054Z,0.00
2023-02-13T05:13:39.075Z,0.00
2023-02-13T05:14:39.044Z,0.00
2023-02-13T05:15:39.126Z,0.00
2023-02-13T05:16:39.016Z,0.00
2023-02-13T05:17:39.009Z,0.00
2023-02-13T05:18:39.010Z,0.00
2023-02-13T05:19:38.993Z,0.00
2023-02-13T05:20:38.968Z,0.00
2023-02-13T05:21:38.991Z,0.00
2023-02-13T05:22:38.971Z,0.00
2023-02-13T05:23:38.945Z,0.00
2023-02-13T05:24:39.024Z,0.00
2023-02-13T05:25:38.937Z,0.00
2023-02-13T05:26:38.942Z,0.00
2023-02-13T05:27:38.919Z,0.00
2023-02-13T05:28:38.957Z,0.00
2023-02-13T05:29:38.892Z,0.00
2023-02-13T05:30:38.899Z,0.00
2023-02-13T05:31:39.031Z,0.00
2023-02-13T05:32:38.844Z,0.00
2023-02-13T05:33:38.837Z,0.00
2023-02-13T05:34:38.825Z,0.00
2023-02-13T05:35:38.837Z,0.00
2023-02-13T05:36:38.843Z,0.00
2023-02-13T05:37:38.799Z,0.00
2023-02-13T05:38:38.785Z,0.00
2023-02-13T05:39:38.776Z,0.00
2023-02-13T05:40:38.777Z,0.00
2023-02-13T05:41:38.757Z,0.00
2023-02-13T05:42:38.775Z,0.00
2023-02-13T05:43:38.734Z,0.00
2023-02-13T05:44:38.714Z,0.00
2023-02-13T05:45:38.714Z,0.00
2023-02-13T05:46:39.365Z,0.00
2023-02-13T05:47:38.691Z,0.00
2023-02-13T05:48:38.681Z,0.00
2023-02-13T05:49:38.670Z,0.00
2023-02-13T05:50:38.656Z,0.00
2023-02-13T05:51:38.649Z,0.00
2023-02-13T05:52:38.633Z,0.00
2023-02-13T05:53:38.567Z,1.00
2023-02-13T05:54:38.607Z,0.00
2023-02-13T05:55:38.646Z,0.00
2023-02-13T05:56:38.555Z,1.00
2023-02-13T05:57:38.530Z,1.00
2023-02-13T05:58:38.525Z,1.00
2023-02-13T05:59:38.615Z,0.00
2023-02-13T06:00:38.500Z,1.00
2023-02-13T06:01:38.545Z,0.00
2023-02-13T06:02:38.537Z,2.00
2023-02-13T06:03:38.515Z,1.00
2023-02-13T06:04:38.449Z,1.00
2023-02-13T06:05:38.490Z,0.00
2023-02-13T06:06:38.470Z,2.00
2023-02-13T06:07:38.446Z,1.00
2023-02-13T06:08:38.406Z,1.00
2023-02-13T06:09:38.407Z,2.00
2023-02-13T06:10:38.398Z,5.00
2023-02-13T06:11:38.386Z,4.00
2023-02-13T06:12:38.360Z,7.00
2023-02-13T06:13:38.409Z,4.00
2023-02-13T06:14:38.394Z,4.00
2023-02-13T06:15:38.449Z,4.00
2023-02-13T06:16:38.392Z,8.00
2023-02-13T06:17:38.354Z,9.00
2023-02-13T06:18:38.332Z,12.00
2023-02-13T06:19:38.316Z,9.00
2023-02-13T06:20:38.279Z,13.00
2023-02-13T06:21:38.312Z,14.00
2023-02-13T06:22:38.250Z,15.00
2023-02-13T06:23:38.306Z,20.00
2023-02-13T06:24:38.237Z,19.00
2023-02-13T06:25:38.228Z,17.00
2023-02-13T06:26:38.244Z,22.00
2023-02-13T06:27:38.206Z,27.00
2023-02-13T06:28:38.290Z,31.00
2023-02-13T06:29:38.182Z,34.00
2023-02-13T06:30:38.234Z,35.00
2023-02-13T06:31:38.256Z,40.00
2023-02-13T06:32:38.153Z,38.00
2023-02-13T06:33:38.144Z,40.00
2023-02-13T06:34:38.131Z,47.00
2023-02-13T06:35:38.122Z,51.00
2023-02-13T06:36:38.103Z,55.00
2023-02-13T06:37:38.094Z,60.00
2023-02-13T06:38:38.097Z,66.00
2023-02-13T06:39:38.080Z,69.00
2023-02-13T06:40:38.102Z,70.00
2023-02-13T06:41:38.080Z,81.00
2023-02-13T06:42:38.050Z,83.00
2023-02-13T06:43:40.030Z,90.00
2023-02-13T06:44:38.024Z,87.00
2023-02-13T06:45:38.019Z,90.00
2023-02-13T06:46:38.045Z,93.00
2023-02-13T06:47:37.984Z,100.00
2023-02-13T06:48:37.977Z,102.00
2023-02-13T06:49:37.991Z,116.00
2023-02-13T06:50:38.001Z,118.00
2023-02-13T06:51:37.953Z,123.00
2023-02-13T06:52:37.995Z,126.00
2023-02-13T06:53:37.928Z,126.00
2023-02-13T06:54:47.359Z,130.00
2023-02-13T06:55:37.905Z,131.00
2023-02-13T06:56:37.898Z,138.00
2023-02-13T06:57:37.928Z,140.00
2023-02-13T06:58:37.866Z,145.00
2023-02-13T06:59:37.854Z,159.00
2023-02-13T07:00:37.931Z,169.00
2023-02-13T07:01:37.877Z,176.00
2023-02-13T07:02:37.896Z,182.00
2023-02-13T07:03:37.839Z,182.00
2023-02-13T07:04:37.851Z,185.00
2023-02-13T07:05:37.823Z,192.00
2023-02-13T07:06:37.777Z,201.00
2023-02-13T07:07:37.830Z,203.00
2023-02-13T07:08:37.766Z,205.00
2023-02-13T07:09:37.769Z,213.00
2023-02-13T07:10:37.737Z,213.00
2023-02-13T07:11:37.791Z,225.00
2023-02-13T07:12:37.723Z,234.00
2023-02-13T07:13:37.727Z,239.00
2023-02-13T07:14:38.411Z,243.00
2023-02-13T07:15:37.872Z,251.00
2023-02-13T07:16:37.758Z,256.00
2023-02-13T07:17:40.466Z,259.00
2023-02-13T07:18:40.565Z,262.00
2023-02-13T07:19:37.694Z,275.00
2023-02-13T07:20:37.652Z,292.00
2023-02-13T07:21:37.624Z,302.00
2023-02-13T07:22:37.658Z,306.00
2023-02-13T07:23:37.694Z,309.00
2023-02-13T07:24:37.583Z,313.00
2023-02-13T07:25:37.615Z,318.00
2023-02-13T07:26:37.632Z,333.00
2023-02-13T07:27:37.608Z,341.00
2023-02-13T07:28:37.594Z,349.00
2023-02-13T07:29:37.590Z,346.00
2023-02-13T07:30:37.586Z,354.00
2023-02-13T07:31:37.662Z,361.00
2023-02-13T07:32:37.559Z,373.00
2023-02-13T07:33:37.492Z,389.00
2023-02-13T07:34:37.492Z,392.00
2023-02-13T07:35:37.559Z,386.00
2023-02-13T07:36:37.484Z,394.00
2023-02-13T07:37:37.504Z,409.00
2023-02-13T07:38:37.469Z,433.00
2023-02-13T07:39:37.436Z,455.00
2023-02-13T07:40:37.420Z,477.00
2023-02-13T07:41:37.919Z,494.00
2023-02-13T07:42:37.548Z,508.00
2023-02-13T07:43:37.866Z,503.00
2023-02-13T07:44:37.405Z,503.00
2023-02-13T07:45:37.374Z,507.00
2023-02-13T07:46:37.425Z,490.00
2023-02-13T07:47:37.370Z,489.00
2023-02-13T07:48:37.357Z,489.00
2023-02-13T07:49:37.334Z,500.00
2023-02-13T07:50:37.345Z,516.00
2023-02-13T07:51:37.307Z,522.00
2023-02-13T07:52:37.315Z,521.00
2023-02-13T07:53:37.309Z,521.00
2023-02-13T07:54:37.273Z,509.00
2023-02-13T07:55:37.323Z,514.00
2023-02-13T07:56:37.305Z,529.00
2023-02-13T07:57:37.303Z,526.00
2023-02-13T07:58:37.267Z,517.00
2023-02-13T07:59:37.283Z,522.00
2023-02-13T08:00:37.319Z,525.00
2023-02-13T08:01:37.303Z,557.00
2023-02-13T08:02:37.250Z,568.00
2023-02-13T08:03:37.305Z,570.00
2023-02-13T08:04:37.175Z,576.00
2023-02-13T08:05:37.174Z,583.00
2023-02-13T08:06:37.165Z,579.00
2023-02-13T08:07:37.213Z,574.00
2023-02-13T08:08:37.276Z,570.00
2023-02-13T08:09:38.890Z,591.00
2023-02-13T08:10:37.151Z,608.00
2023-02-13T08:11:37.096Z,641.00
2023-02-13T08:12:37.090Z,644.00
2023-02-13T08:13:37.080Z,640.00
2023-02-13T08:14:37.079Z,625.00
2023-02-13T08:15:37.055Z,601.00
2023-02-13T08:16:37.094Z,580.00
2023-02-13T08:17:37.027Z,571.00
2023-02-13T08:18:37.026Z,567.00
2023-02-13T08:19:37.037Z,595.00
2023-02-13T08:20:37.036Z,618.00
2023-02-13T08:21:36.989Z,619.00
2023-02-13T08:22:36.966Z,605.00
2023-02-13T08:23:37.011Z,600.00
2023-02-13T08:24:36.954Z,583.00
2023-02-13T08:25:36.940Z,595.00
2023-02-13T08:26:36.920Z,629.00
2023-02-13T08:27:36.924Z,633.00
2023-02-13T08:28:37.015Z,630.00
2023-02-13T08:29:36.903Z,639.00
2023-02-13T08:30:37.066Z,633.00
2023-02-13T08:31:37.016Z,605.00
2023-02-13T08:32:52.112Z,598.00
2023-02-13T08:33:36.931Z,642.00
2023-02-13T08:34:36.867Z,697.00
2023-02-13T08:35:37.229Z,670.00
2023-02-13T08:36:36.832Z,661.00
2023-02-13T08:37:36.813Z,712.00
2023-02-13T08:38:36.896Z,755.00
2023-02-13T08:39:36.785Z,746.00
2023-02-13T08:40:36.826Z,707.00
2023-02-13T08:41:37.706Z,719.00
2023-02-13T08:42:36.777Z,738.00
2023-02-13T08:43:36.754Z,763.00
2023-02-13T08:44:36.786Z,771.00
2023-02-13T08:45:36.759Z,782.00
2023-02-13T08:46:36.920Z,758.00
2023-02-13T08:47:36.729Z,621.00
2023-02-13T08:48:36.713Z,446.00
2023-02-13T08:49:36.784Z,468.00
2023-02-13T08:50:37.429Z,593.00
2023-02-13T08:51:36.705Z,626.00
2023-02-13T08:52:36.748Z,642.00
2023-02-13T08:53:36.675Z,692.00
2023-02-13T08:54:36.616Z,746.00
2023-02-13T08:55:36.696Z,704.00
2023-02-13T08:56:36.622Z,784.00
2023-02-13T08:57:36.605Z,859.00
2023-02-13T08:58:36.643Z,1060.00
2023-02-13T08:59:36.660Z,1196.00
2023-02-13T09:00:36.580Z,1275.00
2023-02-13T09:01:36.678Z,1296.00
2023-02-13T09:02:36.600Z,1305.00
2023-02-13T09:03:36.579Z,1281.00
2023-02-13T09:04:36.530Z,1254.00
2023-02-13T09:05:36.566Z,1251.00
2023-02-13T09:06:36.571Z,1249.00
2023-02-13T09:07:36.546Z,1255.00
2023-02-13T09:08:36.843Z,1257.00
2023-02-13T09:09:36.483Z,1255.00
2023-02-13T09:10:36.487Z,1365.00
2023-02-13T09:11:36.516Z,1488.00
2023-02-13T09:12:36.447Z,1577.00
2023-02-13T09:13:36.421Z,1588.00
2023-02-13T09:14:36.431Z,1534.00
2023-02-13T09:15:36.401Z,1474.00
2023-02-13T09:16:36.519Z,1424.00
2023-02-13T09:17:36.397Z,1409.00
2023-02-13T09:18:36.394Z,1404.00
2023-02-13T09:19:36.411Z,1367.00
2023-02-13T09:20:36.444Z,1283.00
2023-02-13T09:21:36.362Z,1212.00
2023-02-13T09:22:36.340Z,1144.00
2023-02-13T09:23:36.321Z,1094.00
2023-02-13T09:24:36.338Z,965.00
2023-02-13T09:25:36.345Z,1040.00
2023-02-13T09:26:36.289Z,1349.00
2023-02-13T09:27:36.377Z,1194.00
2023-02-13T09:28:36.368Z,1100.00
2023-02-13T09:29:36.306Z,1065.00
2023-02-13T09:30:36.356Z,1172.00
2023-02-13T09:31:36.445Z,1217.00
2023-02-13T09:32:36.276Z,1206.00
2023-02-13T09:33:36.222Z,1090.00
2023-02-13T09:34:36.269Z,1018.00
2023-02-13T09:35:36.252Z,1109.00
2023-02-13T09:36:36.242Z,1180.00
2023-02-13T09:37:36.190Z,1212.00
2023-02-13T09:38:36.220Z,1304.00
2023-02-13T09:39:36.203Z,1426.00
2023-02-13T09:40:36.186Z,1364.00
2023-02-13T09:41:36.137Z,1192.00
2023-02-13T09:42:36.172Z,1344.00
2023-02-13T09:43:36.105Z,1419.00
2023-02-13T09:44:36.136Z,1517.00
2023-02-13T09:45:36.098Z,1444.00
2023-02-13T09:46:36.113Z,1780.00
2023-02-13T09:47:36.097Z,1472.00
2023-02-13T09:48:36.072Z,1416.00
2023-02-13T09:49:36.081Z,1441.00
2023-02-13T09:50:36.036Z,1316.00
2023-02-13T09:51:36.040Z,1435.00
2023-02-13T09:52:36.018Z,1791.00
2023-02-13T09:53:36.000Z,1538.00
2023-02-13T09:54:36.002Z,1458.00
2023-02-13T09:55:35.985Z,1433.00
2023-02-13T09:56:35.978Z,1133.00
2023-02-13T09:57:35.996Z,1374.00
2023-02-13T09:58:35.946Z,1493.00
2023-02-13T09:59:35.933Z,1319.00
2023-02-13T10:00:35.946Z,1231.00
2023-02-13T10:01:36.025Z,1296.00
2023-02-13T10:02:35.913Z,1103.00
2023-02-13T10:03:35.913Z,1100.00
2023-02-13T10:04:35.972Z,1109.00
2023-02-13T10:05:35.869Z,924.00
2023-02-13T10:06:35.858Z,1066.00
2023-02-13T10:07:35.851Z,1246.00
2023-02-13T10:08:35.852Z,1599.00
2023-02-13T10:09:35.834Z,1432.00
2023-02-13T10:10:35.831Z,1662.00
2023-02-13T10:11:35.811Z,1834.00
2023-02-13T10:12:35.796Z,1805.00
2023-02-13T10:13:35.781Z,1524.00
2023-02-13T10:14:35.829Z,1423.00
2023-02-13T10:15:35.815Z,1824.00
2023-02-13T10:16:35.749Z,2320.00
2023-02-13T10:17:35.751Z,2345.00
2023-02-13T10:18:35.761Z,2266.00
2023-02-13T10:19:35.729Z,2152.00
2023-02-13T10:20:35.731Z,1892.00
2023-02-13T10:21:35.719Z,1954.00
2023-02-13T10:22:35.690Z,1894.00
2023-02-13T10:23:35.701Z,1444.00
2023-02-13T10:24:35.713Z,1442.00
2023-02-13T10:25:35.678Z,1352.00
2023-02-13T10:26:35.670Z,1385.00
2023-02-13T10:27:35.638Z,1525.00
2023-02-13T10:28:35.660Z,1622.00
2023-02-13T10:29:35.698Z,1970.00
2023-02-13T10:30:35.638Z,2022.00
2023-02-13T10:31:35.805Z,2102.00
2023-02-13T10:32:35.574Z,2140.00
2023-02-13T10:33:35.570Z,2098.00
2023-02-13T10:34:35.564Z,2142.00
2023-02-13T10:35:35.823Z,2102.00
2023-02-13T10:36:35.574Z,1710.00
2023-02-13T10:37:35.597Z,1852.00
2023-02-13T10:38:35.529Z,1601.00
2023-02-13T10:39:35.571Z,1891.00
2023-02-13T10:40:35.515Z,2341.00
2023-02-13T10:41:35.516Z,2281.00
2023-02-13T10:42:36.566Z,2286.00
2023-02-13T10:43:36.206Z,1711.00
2023-02-13T10:44:36.294Z,1398.00
2023-02-13T10:45:35.436Z,1635.00
2023-02-13T10:46:35.508Z,1411.00
2023-02-13T10:47:35.435Z,1357.00
2023-02-13T10:48:35.410Z,1602.00
2023-02-13T10:49:35.403Z,1316.00
2023-02-13T10:50:35.409Z,1099.00
2023-02-13T10:51:35.414Z,1333.00
2023-02-13T10:52:35.394Z,1654.00
2023-02-13T10:53:35.350Z,1388.00
2023-02-13T10:54:35.359Z,1162.00
2023-02-13T10:55:35.364Z,1117.00
2023-02-13T10:56:35.388Z,883.00
2023-02-13T10:57:35.382Z,866.00
2023-02-13T10:58:35.321Z,855.00
2023-02-13T10:59:35.288Z,698.00
2023-02-13T11:00:35.285Z,681.00
2023-02-13T11:01:35.334Z,724.00
2023-02-13T11:02:35.270Z,799.00
2023-02-13T11:03:35.237Z,908.00
2023-02-13T11:04:35.273Z,962.00
2023-02-13T11:05:35.226Z,1035.00
2023-02-13T11:06:35.313Z,1081.00
2023-02-13T11:07:35.200Z,1064.00
2023-02-13T11:08:35.188Z,1037.00
2023-02-13T11:09:35.188Z,1093.00
2023-02-13T11:10:35.166Z,1143.00
2023-02-13T11:11:35.644Z,1076.00
2023-02-13T11:12:35.166Z,952.00
2023-02-13T11:13:35.138Z,966.00
2023-02-13T11:14:35.126Z,1095.00
2023-02-13T11:15:35.134Z,1234.00
2023-02-13T11:16:35.118Z,1200.00
2023-02-13T11:17:35.163Z,1068.00
2023-02-13T11:18:35.125Z,1375.00
2023-02-13T11:19:35.090Z,1577.00
2023-02-13T11:20:35.088Z,1613.00
2023-02-13T11:21:35.064Z,1547.00
2023-02-13T11:22:35.045Z,1713.00
2023-02-13T11:23:35.042Z,1915.00
2023-02-13T11:24:35.051Z,2346.00
2023-02-13T11:25:35.047Z,2489.00
2023-02-13T11:26:35.016Z,2420.00
2023-02-13T11:27:34.987Z,2390.00
2023-02-13T11:28:35.042Z,2651.00
2023-02-13T11:29:34.960Z,2981.00
2023-02-13T11:30:34.956Z,3156.00
2023-02-13T11:31:35.111Z,2899.00
2023-02-13T11:32:34.959Z,2948.00
2023-02-13T11:33:34.916Z,2896.00
2023-02-13T11:34:34.910Z,2710.00
2023-02-13T11:35:34.903Z,2393.00
2023-02-13T11:36:34.912Z,2262.00
2023-02-13T11:37:34.914Z,2166.00
2023-02-13T11:38:34.915Z,2040.00
2023-02-13T11:39:34.848Z,2101.00
2023-02-13T11:40:34.837Z,1861.00
2023-02-13T11:41:34.822Z,1667.00
2023-02-13T11:42:34.849Z,1622.00
2023-02-13T11:43:34.831Z,1580.00
2023-02-13T11:44:34.797Z,1575.00
2023-02-13T11:45:34.794Z,1606.00
2023-02-13T11:46:34.821Z,1574.00
2023-02-13T11:47:34.806Z,1506.00
2023-02-13T11:48:34.755Z,1485.00
2023-02-13T11:49:34.748Z,1645.00
2023-02-13T11:50:34.755Z,1585.00
2023-02-13T11:51:34.775Z,1439.00
2023-02-13T11:52:34.730Z,1513.00
2023-02-13T11:53:34.716Z,1685.00
2023-02-13T11:54:34.722Z,1766.00
2023-02-13T11:55:34.688Z,1769.00
2023-02-13T11:56:37.089Z,1701.00
2023-02-13T11:57:34.729Z,1654.00
2023-02-13T11:58:34.680Z,1684.00
2023-02-13T11:59:34.644Z,1822.00
2023-02-13T12:00:34.643Z,1899.00
2023-02-13T12:01:34.618Z,2020.00
2023-02-13T12:02:34.653Z,1896.00
2023-02-13T12:03:34.733Z,1670.00
2023-02-13T12:04:34.629Z,1633.00
2023-02-13T12:05:34.604Z,1814.00
2023-02-13T12:06:34.939Z,1948.00
2023-02-13T12:07:34.836Z,1961.00
2023-02-13T12:08:34.549Z,1915.00
2023-02-13T12:09:34.933Z,1848.00
2023-02-13T12:10:34.774Z,1851.00
2023-02-13T12:11:34.653Z,1859.00
2023-02-13T12:12:34.617Z,1785.00
2023-02-13T12:13:34.536Z,1733.00
2023-02-13T12:14:34.595Z,1627.00
2023-02-13T12:15:34.501Z,1552.00
2023-02-13T12:16:34.702Z,1534.00
2023-02-13T12:17:34.482Z,1609.00
2023-02-13T12:18:36.403Z,1668.00
2023-02-13T12:19:34.546Z,1576.00
2023-02-13T12:20:34.661Z,1470.00
2023-02-13T12:21:34.755Z,1468.00
2023-02-13T12:22:35.171Z,1477.00
2023-02-13T12:23:34.535Z,1570.00
2023-02-13T12:24:34.607Z,1597.00
2023-02-13T12:25:34.382Z,1496.00
2023-02-13T12:26:34.529Z,1526.00
2023-02-13T12:27:34.475Z,1624.00
2023-02-13T12:28:34.488Z,1630.00
2023-02-13T12:29:35.141Z,1641.00
2023-02-13T12:30:34.438Z,1619.00
2023-02-13T12:31:34.372Z,1582.00
2023-02-13T12:32:34.305Z,1547.00
2023-02-13T12:33:34.324Z,1544.00
2023-02-13T12:34:34.360Z,1553.00
2023-02-13T12:35:34.256Z,1538.00
2023-02-13T12:36:34.301Z,1517.00
2023-02-13T12:37:34.284Z,1505.00
2023-02-13T12:38:34.239Z,1479.00
2023-02-13T12:39:34.246Z,1458.00
2023-02-13T12:40:34.261Z,1464.00
2023-02-13T12:41:34.247Z,1458.00
2023-02-13T12:42:34.348Z,1439.00
2023-02-13T12:43:34.199Z,1419.00
2023-02-13T12:44:34.197Z,1415.00
2023-02-13T12:45:34.241Z,1410.00
2023-02-13T12:46:34.198Z,1402.00
2023-02-13T12:47:34.144Z,1404.00
2023-02-13T12:48:34.174Z,1395.00
2023-02-13T12:49:34.156Z,1389.00
2023-02-13T12:50:34.104Z,1358.00
2023-02-13T12:51:34.102Z,1352.00
2023-02-13T12:52:34.131Z,1360.00
2023-02-13T12:53:34.063Z,1376.00
2023-02-13T12:54:34.106Z,1363.00
2023-02-13T12:55:34.092Z,1349.00
2023-02-13T12:56:34.041Z,1320.00
2023-02-13T12:57:34.026Z,1300.00
2023-02-13T12:58:34.022Z,1290.00
2023-02-13T12:59:34.028Z,1329.00
2023-02-13T13:00:34.003Z,1331.00
2023-02-13T13:01:34.066Z,1290.00
2023-02-13T13:02:33.998Z,1313.00
2023-02-13T13:03:33.962Z,1301.00
2023-02-13T13:04:33.964Z,1228.00
2023-02-13T13:05:33.936Z,1099.00
2023-02-13T13:06:33.938Z,1042.00
2023-02-13T13:07:33.946Z,1087.00
2023-02-13T13:08:33.911Z,1149.00
2023-02-13T13:09:33.899Z,1132.00
2023-02-13T13:10:33.892Z,1166.00
2023-02-13T13:11:33.872Z,1263.00
2023-02-13T13:12:33.871Z,1343.00
2023-02-13T13:13:33.858Z,1385.00
2023-02-13T13:14:33.842Z,1402.00
2023-02-13T13:15:33.840Z,1375.00
2023-02-13T13:16:33.857Z,1244.00
2023-02-13T13:17:33.813Z,1132.00
2023-02-13T13:18:33.789Z,1127.00
2023-02-13T13:19:33.837Z,1257.00
2023-02-13T13:20:33.775Z,1365.00
2023-02-13T13:21:33.761Z,1258.00
2023-02-13T13:22:33.745Z,1265.00
2023-02-13T13:23:33.738Z,1257.00
2023-02-13T13:24:33.726Z,1178.00
2023-02-13T13:25:33.745Z,1120.00
2023-02-13T13:26:33.709Z,1010.00
2023-02-13T13:27:33.700Z,956.00
2023-02-13T13:28:33.728Z,967.00
2023-02-13T13:29:33.678Z,919.00
2023-02-13T13:30:35.610Z,911.00
2023-02-13T13:31:33.753Z,870.00
2023-02-13T13:32:33.652Z,842.00
2023-02-13T13:33:33.644Z,953.00
2023-02-13T13:34:33.611Z,1004.00
2023-02-13T13:35:33.633Z,1028.00
2023-02-13T13:36:33.633Z,1020.00
2023-02-13T13:37:33.583Z,997.00
2023-02-13T13:38:33.605Z,875.00
2023-02-13T13:39:33.586Z,799.00
2023-02-13T13:40:33.569Z,756.00
2023-02-13T13:41:33.565Z,787.00
2023-02-13T13:42:33.542Z,904.00
2023-02-13T13:43:33.525Z,1046.00
2023-02-13T13:44:33.545Z,1134.00
2023-02-13T13:45:33.517Z,1217.00
2023-02-13T13:46:33.505Z,1228.00
2023-02-13T13:47:33.487Z,1231.00
2023-02-13T13:48:33.485Z,1223.00
2023-02-13T13:49:33.488Z,1194.00
2023-02-13T13:50:33.448Z,1209.00
2023-02-13T13:51:33.469Z,1196.00
2023-02-13T13:52:33.434Z,1188.00
2023-02-13T13:53:33.446Z,1208.00
2023-02-13T13:54:33.423Z,1191.00
2023-02-13T13:55:33.420Z,1169.00
2023-02-13T13:56:33.388Z,1142.00
2023-02-13T13:57:33.395Z,1124.00
2023-02-13T13:58:33.388Z,1080.00
2023-02-13T13:59:33.421Z,1106.00
2023-02-13T14:00:33.546Z,1055.00
2023-02-13T14:01:33.382Z,960.00
2023-02-13T14:02:33.435Z,883.00
2023-02-13T14:03:33.729Z,878.00
2023-02-13T14:04:33.295Z,824.00
2023-02-13T14:05:33.342Z,647.00
2023-02-13T14:06:33.276Z,627.00
2023-02-13T14:07:33.266Z,782.00
2023-02-13T14:08:33.251Z,874.00
2023-02-13T14:09:33.268Z,947.00
2023-02-13T14:10:33.237Z,1004.00
2023-02-13T14:11:33.250Z,1032.00
2023-02-13T14:12:33.252Z,903.00
2023-02-13T14:13:33.204Z,884.00
2023-02-13T14:14:33.209Z,901.00
2023-02-13T14:15:33.395Z,861.00
2023-02-13T14:16:33.204Z,837.00
2023-02-13T14:17:33.182Z,824.00
2023-02-13T14:18:33.195Z,821.00
2023-02-13T14:19:33.152Z,876.00
2023-02-13T14:20:33.135Z,833.00
2023-02-13T14:21:33.175Z,775.00
2023-02-13T14:22:33.138Z,738.00
2023-02-13T14:23:33.095Z,683.00
2023-02-13T14:24:33.070Z,567.00
2023-02-13T14:25:33.090Z,497.00
2023-02-13T14:26:33.085Z,517.00
2023-02-13T14:27:33.044Z,596.00
2023-02-13T14:28:33.028Z,656.00
2023-02-13T14:29:33.054Z,600.00
2023-02-13T14:30:33.024Z,497.00
2023-02-13T14:31:33.235Z,508.00
2023-02-13T14:32:33.022Z,645.00
2023-02-13T14:33:32.994Z,687.00
2023-02-13T14:34:33.012Z,672.00
2023-02-13T14:35:32.979Z,656.00
2023-02-13T14:36:32.964Z,678.00
2023-02-13T14:37:32.948Z,715.00
2023-02-13T14:38:32.923Z,742.00
2023-02-13T14:39:32.931Z,751.00
2023-02-13T14:40:32.915Z,703.00
2023-02-13T14:41:32.927Z,639.00
2023-02-13T14:42:32.891Z,585.00
2023-02-13T14:43:32.900Z,513.00
2023-02-13T14:44:32.868Z,443.00
2023-02-13T14:45:32.850Z,373.00
2023-02-13T14:46:32.883Z,288.00
2023-02-13T14:47:32.851Z,236.00
2023-02-13T14:48:32.825Z,306.00
2023-02-13T14:49:32.825Z,480.00
2023-02-13T14:50:32.823Z,552.00
2023-02-13T14:51:32.790Z,593.00
2023-02-13T14:52:32.852Z,612.00
2023-02-13T14:53:32.808Z,581.00
2023-02-13T14:54:32.792Z,540.00
2023-02-13T14:55:32.745Z,513.00
2023-02-13T14:56:32.739Z,471.00
2023-02-13T14:57:32.745Z,396.00
2023-02-13T14:58:32.719Z,353.00
2023-02-13T14:59:32.778Z,324.00
2023-02-13T15:00:32.685Z,310.00
2023-02-13T15:01:32.739Z,294.00
2023-02-13T15:02:32.745Z,274.00
2023-02-13T15:03:32.673Z,270.00
2023-02-13T15:04:32.854Z,275.00
2023-02-13T15:05:32.664Z,290.00
2023-02-13T15:06:32.634Z,272.00
2023-02-13T15:07:32.635Z,244.00
2023-02-13T15:08:32.616Z,247.00
2023-02-13T15:09:32.605Z,238.00
2023-02-13T15:10:33.278Z,220.00
2023-02-13T15:11:32.746Z,199.00
2023-02-13T15:12:32.584Z,200.00
2023-02-13T15:13:32.560Z,223.00
2023-02-13T15:14:32.561Z,292.00
2023-02-13T15:15:32.547Z,365.00
2023-02-13T15:16:32.535Z,376.00
2023-02-13T15:17:32.538Z,371.00
2023-02-13T15:18:32.517Z,361.00
2023-02-13T15:19:32.497Z,350.00
2023-02-13T15:20:32.480Z,354.00
2023-02-13T15:21:32.478Z,360.00
2023-02-13T15:22:32.487Z,353.00
2023-02-13T15:23:32.448Z,348.00
2023-02-13T15:24:32.448Z,367.00
2023-02-13T15:25:32.455Z,392.00
2023-02-13T15:26:32.437Z,410.00
2023-02-13T15:27:32.454Z,411.00
2023-02-13T15:28:32.393Z,412.00
2023-02-13T15:29:44.320Z,396.00
2023-02-13T15:30:32.516Z,401.00
2023-02-13T15:31:32.430Z,415.00
2023-02-13T15:32:32.361Z,411.00
2023-02-13T15:33:32.360Z,382.00
2023-02-13T15:34:32.322Z,366.00
2023-02-13T15:37:09.974Z,305.00
2023-02-13T15:37:43.423Z,293.00
2023-02-13T15:38:43.379Z,293.00
2023-02-13T15:39:43.380Z,287.00
2023-02-13T15:40:43.354Z,332.00
2023-02-13T15:41:43.349Z,317.00
2023-02-13T15:42:43.335Z,283.00
2023-02-13T15:43:43.335Z,277.00
2023-02-13T15:44:43.325Z,286.00
2023-02-13T15:45:43.358Z,290.00
2023-02-13T15:46:43.345Z,282.00
2023-02-13T15:47:43.325Z,282.00
2023-02-13T15:48:43.279Z,287.00
2023-02-13T15:49:43.266Z,275.00
2023-02-13T15:50:43.316Z,248.00
2023-02-13T15:51:43.306Z,225.00
2023-02-13T15:52:43.268Z,216.00
2023-02-13T15:53:43.227Z,195.00
2023-02-13T15:54:43.197Z,185.00
2023-02-13T15:55:43.210Z,165.00
2023-02-13T15:56:43.186Z,143.00
2023-02-13T15:57:43.200Z,136.00
2023-02-13T15:58:43.168Z,136.00
2023-02-13T15:59:43.167Z,148.00
2023-02-13T16:00:43.159Z,157.00
2023-02-13T16:01:43.160Z,159.00
2023-02-13T16:02:43.214Z,165.00
2023-02-13T16:03:43.102Z,167.00
2023-02-13T16:04:43.107Z,153.00
2023-02-13T16:05:43.084Z,138.00
2023-02-13T16:06:43.082Z,130.00
2023-02-13T16:07:43.060Z,119.00
2023-02-13T16:08:43.069Z,115.00
2023-02-13T16:09:43.064Z,103.00
2023-02-13T16:10:43.057Z,93.00
2023-02-13T16:11:43.051Z,87.00
2023-02-13T16:12:43.017Z,81.00
2023-02-13T16:13:43.002Z,77.00
2023-02-13T16:14:42.989Z,70.00
2023-02-13T16:15:42.966Z,65.00
2023-02-13T16:16:42.977Z,56.00
2023-02-13T16:17:42.956Z,50.00
2023-02-13T16:18:42.942Z,45.00
2023-02-13T16:19:42.951Z,45.00
2023-02-13T16:20:42.994Z,34.00
2023-02-13T16:21:42.952Z,33.00
2023-02-13T16:22:42.910Z,29.00
2023-02-13T16:23:42.893Z,29.00
2023-02-13T16:24:42.876Z,26.00
2023-02-13T16:25:42.868Z,19.00
2023-02-13T16:26:42.872Z,12.00
2023-02-13T16:27:42.868Z,14.00
2023-02-13T16:28:42.841Z,13.00
2023-02-13T16:29:42.826Z,9.00
2023-02-13T16:30:42.845Z,7.00
2023-02-13T16:31:42.935Z,6.00
2023-02-13T16:32:42.796Z,6.00
2023-02-13T16:33:42.795Z,4.00
2023-02-13T16:34:42.775Z,2.00
2023-02-13T16:35:42.818Z,5.00
2023-02-13T16:36:42.822Z,4.00
2023-02-13T16:37:42.734Z,6.00
2023-02-13T16:38:42.769Z,1.00
2023-02-13T16:39:42.788Z,0.00
2023-02-13T16:40:42.772Z,0.00
2023-02-13T16:41:42.804Z,0.00
2023-02-13T16:42:42.745Z,0.00
2023-02-13T16:43:42.730Z,2.00
2023-02-13T16:44:42.715Z,2.00
2023-02-13T16:45:42.741Z,0.00
2023-02-13T16:46:42.745Z,0.00
2023-02-13T16:47:42.646Z,1.00
2023-02-13T16:48:42.654Z,1.00
2023-02-13T16:49:42.610Z,1.00
2023-02-13T16:50:42.664Z,0.00
2023-02-13T16:51:42.674Z,0.00
2023-02-13T16:52:42.649Z,0.00
2023-02-13T16:53:42.623Z,0.00
2023-02-13T16:54:42.644Z,0.00
2023-02-13T16:55:42.602Z,0.00
2023-02-13T16:56:42.610Z,0.00
2023-02-13T16:57:42.611Z,0.00
2023-02-13T16:58:42.590Z,0.00
2023-02-13T16:59:42.574Z,0.00
2023-02-13T17:00:42.593Z,0.00
2023-02-13T17:01:42.561Z,0.00
2023-02-13T17:02:42.583Z,0.00
2023-02-13T17:03:42.594Z,0.00
2023-02-13T17:04:42.519Z,0.00
2023-02-13T17:05:42.528Z,0.00
2023-02-13T17:06:42.564Z,0.00
2023-02-13T17:07:42.586Z,0.00
2023-02-13T17:08:42.493Z,0.00
2023-02-13T17:09:43.364Z,0.00
2023-02-13T17:10:42.471Z,0.00
2023-02-13T17:11:42.434Z,0.00
2023-02-13T17:12:42.441Z,0.00
2023-02-13T17:13:42.417Z,0.00
2023-02-13T17:14:42.412Z,0.00
2023-02-13T17:15:42.390Z,0.00
2023-02-13T17:16:42.440Z,0.00
2023-02-13T17:17:42.403Z,0.00
2023-02-13T17:18:42.385Z,0.00
2023-02-13T17:19:42.356Z,0.00
2023-02-13T17:20:42.349Z,0.00
2023-02-13T17:21:42.380Z,0.00
2023-02-13T17:22:42.277Z,1.00
2023-02-13T17:23:42.319Z,0.00
2023-02-13T17:24:42.291Z,0.00
2023-02-13T17:25:42.288Z,0.00
2023-02-13T17:26:42.327Z,0.00
2023-02-13T17:27:42.278Z,0.00
2023-02-13T17:28:42.260Z,0.00
2023-02-13T17:29:42.301Z,0.00
2023-02-13T17:30:42.230Z,0.00
2023-02-13T17:31:42.353Z,0.00